Time;durP1;ratioP1;P1;durP2;ratioP2;P2;SDS_P1;SDS_P2;PMS_P1;PMS_P2;Temp;Humidity;BMP_temperature;BMP_pressure;BME280_temperature;BME280_humidity;BME280_pressure;Samples;Min_cycle;Max_cycle;Signal;HPM_P1;HPM_P2
2022/11/12 00:01:29;;;;;;;19.77;9.73;;;;;;;;;;5066711;28;20223;-68
2022/11/12 00:03:56;;;;;;;18.17;9.77;;;;;;;;;;5072439;28;20256;-68
2022/11/12 00:06:21;;;;;;;21.33;9.63;;;;;;;;;;5072498;28;20214;-68
2022/11/12 00:08:46;;;;;;;21.63;9.63;;;;;;;;;;5069044;28;20192;-68
2022/11/12 00:11:13;;;;;;;18.60;9.33;;;;;;;;;;5068262;28;20587;-68
2022/11/12 00:13:38;;;;;;;21.50;9.90;;;;;;;;;;5068633;28;20211;-68
2022/11/12 00:16:04;;;;;;;18.07;9.23;;;;;;;;;;5066443;28;20625;-68
2022/11/12 00:18:30;;;;;;;17.80;9.90;;;;;;;;;;5074444;28;20176;-68
2022/11/12 00:20:55;;;;;;;22.37;9.13;;;;;;;;;;5074180;28;20636;-68
2022/11/12 00:23:20;;;;;;;18.33;9.63;;;;;;;;;;5067585;28;20181;-68
2022/11/12 00:25:46;;;;;;;18.30;9.07;;;;;;;;;;5070553;28;20267;-68
2022/11/12 00:28:11;;;;;;;16.50;8.50;;;;;;;;;;5070931;28;20231;-68
2022/11/12 00:30:38;;;;;;;15.17;8.70;;;;;;;;;;5073671;28;20648;-68
2022/11/12 00:33:04;;;;;;;18.30;8.83;;;;;;;;;;5069633;28;20358;-68
2022/11/12 00:35:31;;;;;;;17.90;8.93;;;;;;;;;;5071265;28;20692;-68
2022/11/12 00:37:56;;;;;;;18.83;8.73;;;;;;;;;;5067253;28;20181;-68
2022/11/12 00:40:22;;;;;;;16.57;9.27;;;;;;;;;;5069878;28;20307;-68
2022/11/12 00:42:49;;;;;;;21.33;9.70;;;;;;;;;;5067152;28;20312;-68
2022/11/12 00:45:15;;;;;;;17.33;8.67;;;;;;;;;;5069059;28;20189;-68
2022/11/12 00:47:40;;;;;;;18.70;9.30;;;;;;;;;;5069406;28;20736;-68
2022/11/12 00:50:06;;;;;;;18.10;10.00;;;;;;;;;;5076404;28;20738;-68
2022/11/12 00:52:31;;;;;;;17.23;9.07;;;;;;;;;;5073880;28;20768;-68
2022/11/12 00:54:57;;;;;;;19.10;9.17;;;;;;;;;;5071196;28;20600;-68
2022/11/12 00:57:22;;;;;;;18.37;10.20;;;;;;;;;;5070169;28;20644;-68
2022/11/12 00:59:47;;;;;;;17.40;9.30;;;;;;;;;;5071176;28;20204;-68
2022/11/12 01:02:13;;;;;;;18.30;9.43;;;;;;;;;;5078570;28;20683;-68
2022/11/12 01:04:38;;;;;;;21.17;9.77;;;;;;;;;;5076245;28;20199;-68
2022/11/12 01:07:03;;;;;;;23.03;9.07;;;;;;;;;;5078933;28;20263;-68
2022/11/12 01:09:28;;;;;;;20.73;9.30;;;;;;;;;;5074000;28;20188;-68
2022/11/12 01:11:54;;;;;;;21.83;9.67;;;;;;;;;;5076636;28;20492;-68
2022/11/12 01:14:19;;;;;;;16.30;8.30;;;;;;;;;;5075377;28;20173;-68
2022/11/12 01:16:44;;;;;;;21.77;9.90;;;;;;;;;;5079212;28;20173;-68
2022/11/12 01:19:12;;;;;;;18.70;9.60;;;;;;;;;;5071223;28;20181;-68
2022/11/12 01:21:40;;;;;;;20.07;9.33;;;;;;;;;;5079877;28;20207;-68
2022/11/12 01:24:06;;;;;;;19.50;9.40;;;;;;;;;;5075715;28;20181;-68
2022/11/12 01:26:32;;;;;;;18.00;9.70;;;;;;;;;;5082888;28;20262;-68
2022/11/12 01:28:57;;;;;;;19.80;9.03;;;;;;;;;;5071225;28;20679;-68
2022/11/12 01:31:28;;;;;;;22.90;9.30;;;;;;;;;;5071860;28;20184;-68
2022/11/12 01:33:59;;;;;;;13.37;8.10;;;;;;;;;;5079474;28;20189;-68
2022/11/12 01:36:26;;;;;;;15.63;8.60;;;;;;;;;;5076296;28;20216;-68
2022/11/12 01:38:52;;;;;;;16.43;8.37;;;;;;;;;;5075582;28;20193;-68
2022/11/12 01:41:20;;;;;;;16.67;8.00;;;;;;;;;;5083025;28;20493;-68
2022/11/12 01:43:46;;;;;;;17.97;8.63;;;;;;;;;;5069472;28;20275;-68
2022/11/12 01:46:23;;;;;;;19.57;9.80;;;;;;;;;;5084074;28;20259;-68
2022/11/12 01:48:57;;;;;;;20.27;10.23;;;;;;;;;;5081338;28;20196;-68
2022/11/12 01:51:25;;;;;;;19.10;8.97;;;;;;;;;;5073221;28;20199;-68
2022/11/12 01:53:54;;;;;;;20.90;8.73;;;;;;;;;;5074771;28;20180;-68
2022/11/12 01:56:22;;;;;;;15.97;9.30;;;;;;;;;;5074633;28;20776;-68
2022/11/12 01:58:52;;;;;;;20.80;8.90;;;;;;;;;;5076496;28;20280;-68
2022/11/12 02:01:18;;;;;;;21.30;9.40;;;;;;;;;;5076114;28;20180;-68
2022/11/12 02:03:43;;;;;;;24.40;10.97;;;;;;;;;;5083395;28;20184;-68
2022/11/12 02:06:12;;;;;;;17.93;9.20;;;;;;;;;;5085384;28;20176;-68
2022/11/12 02:08:39;;;;;;;25.33;10.60;;;;;;;;;;5076367;28;20203;-68
2022/11/12 02:11:17;;;;;;;18.83;10.00;;;;;;;;;;5085215;28;20176;-69
2022/11/12 02:14:00;;;;;;;27.30;10.00;;;;;;;;;;5085216;28;20270;-68
2022/11/12 02:16:43;;;;;;;16.37;9.60;;;;;;;;;;5087227;28;20187;-68
2022/11/12 02:19:11;;;;;;;22.70;9.47;;;;;;;;;;5082098;28;20176;-69
2022/11/12 02:21:37;;;;;;;16.53;9.43;;;;;;;;;;5081018;28;20590;-68
2022/11/12 02:24:10;;;;;;;18.23;9.03;;;;;;;;;;5086690;28;20191;-68
2022/11/12 02:26:39;;;;;;;14.33;7.87;;;;;;;;;;5078338;28;20184;-68
2022/11/12 02:29:04;;;;;;;12.87;7.83;;;;;;;;;;5081527;28;20287;-68
2022/11/12 02:31:30;;;;;;;15.33;7.77;;;;;;;;;;5073510;28;20272;-68
2022/11/12 02:33:55;;;;;;;16.07;7.93;;;;;;;;;;5072034;28;20255;-68
2022/11/12 02:36:22;;;;;;;16.07;7.10;;;;;;;;;;5081290;28;20696;-68
2022/11/12 02:38:47;;;;;;;11.37;5.70;;;;;;;;;;5074282;28;20172;-68
2022/11/12 02:41:13;;;;;;;11.13;6.03;;;;;;;;;;5079495;28;20233;-68
2022/11/12 02:43:39;;;;;;;13.07;6.50;;;;;;;;;;5081506;28;20207;-68
2022/11/12 02:46:05;;;;;;;13.33;6.70;;;;;;;;;;5082355;28;20231;-68
2022/11/12 02:48:30;;;;;;;11.60;6.10;;;;;;;;;;5080440;28;20656;-68
2022/11/12 02:50:56;;;;;;;13.13;7.20;;;;;;;;;;5076264;28;20180;-68
2022/11/12 02:53:21;;;;;;;15.83;8.67;;;;;;;;;;5071989;28;20195;-68
2022/11/12 02:55:46;;;;;;;17.00;9.47;;;;;;;;;;5080975;28;20472;-68
2022/11/12 02:58:12;;;;;;;17.33;9.00;;;;;;;;;;5082401;28;20173;-68
2022/11/12 03:00:37;;;;;;;14.60;7.63;;;;;;;;;;5079524;28;20655;-68
2022/11/12 03:03:02;;;;;;;13.60;7.63;;;;;;;;;;5075507;28;20271;-68
2022/11/12 03:05:30;;;;;;;14.73;7.67;;;;;;;;;;5078580;28;20247;-68
2022/11/12 03:08:00;;;;;;;19.10;8.53;;;;;;;;;;5080461;28;20640;-68
2022/11/12 03:10:26;;;;;;;15.30;7.13;;;;;;;;;;5085914;28;20233;-68
2022/11/12 03:12:53;;;;;;;15.03;6.80;;;;;;;;;;5082534;28;20184;-68
2022/11/12 03:15:18;;;;;;;12.80;7.17;;;;;;;;;;5079451;28;20180;-68
2022/11/12 03:17:43;;;;;;;11.93;6.60;;;;;;;;;;5075779;28;20207;-68
2022/11/12 03:20:10;;;;;;;19.03;7.43;;;;;;;;;;5069171;28;20177;-68
2022/11/12 03:22:36;;;;;;;13.83;7.53;;;;;;;;;;5083915;28;20190;-68
2022/11/12 03:25:02;;;;;;;18.83;8.70;;;;;;;;;;5087525;28;20191;-68
2022/11/12 03:27:27;;;;;;;15.40;7.63;;;;;;;;;;5081821;28;20177;-68
2022/11/12 03:29:52;;;;;;;14.43;7.43;;;;;;;;;;5083979;28;20226;-68
2022/11/12 03:32:18;;;;;;;14.60;7.40;;;;;;;;;;5081469;28;20271;-68
2022/11/12 03:34:43;;;;;;;16.37;6.80;;;;;;;;;;5082399;28;20216;-68
2022/11/12 03:37:09;;;;;;;20.80;9.20;;;;;;;;;;5078471;28;20191;-68
2022/11/12 03:39:35;;;;;;;11.93;7.67;;;;;;;;;;5077553;28;20176;-68
2022/11/12 03:42:00;;;;;;;15.57;8.40;;;;;;;;;;5077466;28;20186;-68
2022/11/12 03:44:26;;;;;;;13.87;7.50;;;;;;;;;;5081865;28;20180;-68
2022/11/12 03:46:51;;;;;;;16.87;8.13;;;;;;;;;;5074336;28;20214;-68
2022/11/12 03:49:16;;;;;;;13.10;6.57;;;;;;;;;;5070829;28;20220;-68
2022/11/12 03:51:42;;;;;;;13.37;7.70;;;;;;;;;;5069804;28;20181;-68
2022/11/12 03:54:07;;;;;;;13.83;6.90;;;;;;;;;;5071880;28;20179;-69
2022/11/12 03:56:32;;;;;;;15.97;8.70;;;;;;;;;;5070266;28;20243;-68
2022/11/12 03:58:58;;;;;;;16.60;8.00;;;;;;;;;;5071216;28;20204;-68
2022/11/12 04:01:23;;;;;;;15.27;7.93;;;;;;;;;;5080695;28;20267;-68
2022/11/12 04:03:49;;;;;;;18.03;8.50;;;;;;;;;;5071233;28;20173;-69
2022/11/12 04:08:58;;;;;;;20.03;9.83;;;;;;;;;;5078805;28;20246;-68
2022/11/12 04:11:23;;;;;;;16.00;8.20;;;;;;;;;;5077347;28;20184;-68
2022/11/12 04:13:49;;;;;;;18.33;10.17;;;;;;;;;;5089850;28;20187;-68
2022/11/12 04:21:53;;;;;;;21.23;10.93;;;;;;;;;;5075224;28;20670;-68
2022/11/12 04:27:34;;;;;;;18.47;9.27;;;;;;;;;;5071784;28;20215;-68
2022/11/12 04:30:15;;;;;;;22.23;9.27;;;;;;;;;;5073817;28;20208;-68
2022/11/12 04:32:53;;;;;;;19.47;10.60;;;;;;;;;;5079326;28;20280;-68
2022/11/12 04:35:20;;;;;;;22.87;10.07;;;;;;;;;;5080715;28;20184;-69
2022/11/12 04:37:46;;;;;;;17.30;9.80;;;;;;;;;;5074581;28;20225;-69
2022/11/12 04:45:53;;;;;;;18.83;10.27;;;;;;;;;;5081746;28;20211;-69
2022/11/12 04:48:19;;;;;;;21.03;10.13;;;;;;;;;;5076791;28;20210;-69
2022/11/12 04:50:49;;;;;;;16.93;9.53;;;;;;;;;;5072792;28;20318;-69
2022/11/12 04:53:14;;;;;;;17.23;9.70;;;;;;;;;;5079432;28;20270;-68
2022/11/12 04:55:40;;;;;;;19.20;9.63;;;;;;;;;;5076702;28;20642;-68
2022/11/12 04:58:05;;;;;;;16.30;8.77;;;;;;;;;;5084042;28;20282;-68
2022/11/12 05:00:30;;;;;;;20.60;9.97;;;;;;;;;;5078819;28;20262;-69
2022/11/12 05:02:56;;;;;;;22.23;10.23;;;;;;;;;;5074543;28;20215;-69
2022/11/12 05:05:21;;;;;;;22.43;11.43;;;;;;;;;;5075559;28;20290;-68
2022/11/12 05:07:47;;;;;;;21.90;9.63;;;;;;;;;;5078133;28;20181;-68
2022/11/12 05:10:12;;;;;;;18.87;9.47;;;;;;;;;;5080840;28;20297;-68
2022/11/12 05:12:37;;;;;;;19.53;8.77;;;;;;;;;;5076088;28;20176;-68
2022/11/12 05:15:04;;;;;;;20.70;9.63;;;;;;;;;;5071183;28;20715;-69
2022/11/12 05:17:29;;;;;;;19.03;10.57;;;;;;;;;;5086753;28;20172;-68
2022/11/12 05:19:54;;;;;;;20.63;9.77;;;;;;;;;;5078014;28;20503;-68
2022/11/12 05:22:20;;;;;;;17.13;9.60;;;;;;;;;;5084878;28;20188;-68
2022/11/12 05:24:45;;;;;;;18.33;8.37;;;;;;;;;;5075508;28;20183;-69
2022/11/12 05:27:13;;;;;;;15.13;9.00;;;;;;;;;;5084180;28;20181;-68
2022/11/12 05:29:39;;;;;;;18.60;9.03;;;;;;;;;;5078154;28;20597;-69
2022/11/12 05:32:06;;;;;;;16.00;8.13;;;;;;;;;;5079195;28;20239;-69
2022/11/12 05:34:32;;;;;;;15.80;8.57;;;;;;;;;;5081936;28;20451;-69
2022/11/12 05:36:57;;;;;;;15.73;8.10;;;;;;;;;;5080745;28;20185;-68
2022/11/12 05:39:23;;;;;;;17.57;8.53;;;;;;;;;;5077801;28;20176;-68
2022/11/12 05:41:48;;;;;;;13.10;7.97;;;;;;;;;;5075612;28;20176;-68
2022/11/12 05:44:14;;;;;;;17.17;8.40;;;;;;;;;;5070673;28;20176;-68
2022/11/12 05:46:39;;;;;;;14.83;8.03;;;;;;;;;;5072853;28;20535;-68
2022/11/12 05:49:05;;;;;;;14.87;7.50;;;;;;;;;;5076866;28;20254;-68
2022/11/12 05:51:30;;;;;;;12.80;6.67;;;;;;;;;;5074583;28;20169;-68
2022/11/12 05:53:55;;;;;;;12.63;6.23;;;;;;;;;;5080953;28;20279;-69
2022/11/12 05:56:21;;;;;;;14.40;7.67;;;;;;;;;;5076627;28;20184;-69
2022/11/12 05:58:46;;;;;;;15.57;7.93;;;;;;;;;;5081365;28;20175;-68
2022/11/12 06:01:11;;;;;;;19.10;8.50;;;;;;;;;;5073541;28;20172;-68
2022/11/12 06:03:37;;;;;;;17.33;9.23;;;;;;;;;;5079654;28;20184;-69
2022/11/12 06:06:02;;;;;;;15.47;8.50;;;;;;;;;;5072064;28;20504;-68
2022/11/12 06:08:28;;;;;;;13.20;7.53;;;;;;;;;;5072861;28;20189;-68
2022/11/12 06:10:54;;;;;;;16.57;8.20;;;;;;;;;;5081785;28;20180;-69
2022/11/12 06:13:21;;;;;;;13.23;7.83;;;;;;;;;;5083988;28;20176;-68
2022/11/12 06:15:47;;;;;;;14.53;6.73;;;;;;;;;;5078503;28;20177;-68
2022/11/12 06:18:12;;;;;;;11.17;6.60;;;;;;;;;;5074982;28;20208;-69
2022/11/12 06:20:38;;;;;;;15.03;7.57;;;;;;;;;;5072966;28;20176;-69
2022/11/12 06:23:03;;;;;;;10.97;6.60;;;;;;;;;;5073656;28;20203;-69
2022/11/12 06:25:29;;;;;;;14.43;6.87;;;;;;;;;;5069464;28;20181;-69
2022/11/12 06:27:54;;;;;;;15.40;7.10;;;;;;;;;;5074636;28;20194;-69
2022/11/12 06:30:19;;;;;;;13.00;7.03;;;;;;;;;;5069944;28;20220;-68
2022/11/12 06:32:46;;;;;;;11.23;6.90;;;;;;;;;;5067726;28;20232;-69
2022/11/12 06:35:12;;;;;;;11.60;6.63;;;;;;;;;;5075200;28;20875;-69
2022/11/12 06:37:37;;;;;;;16.87;7.77;;;;;;;;;;5073368;28;20234;-68
2022/11/12 06:40:03;;;;;;;14.17;7.63;;;;;;;;;;5072453;28;20180;-69
2022/11/12 06:42:28;;;;;;;11.90;7.53;;;;;;;;;;5074829;28;20670;-68
2022/11/12 06:44:54;;;;;;;15.07;7.63;;;;;;;;;;5069783;28;20189;-68
2022/11/12 06:47:19;;;;;;;15.73;7.90;;;;;;;;;;5072993;28;20192;-68
2022/11/12 06:49:44;;;;;;;20.10;8.97;;;;;;;;;;5077177;28;20246;-68
2022/11/12 06:52:10;;;;;;;15.50;7.57;;;;;;;;;;5071311;28;20176;-69
2022/11/12 06:54:35;;;;;;;15.60;8.40;;;;;;;;;;5072014;28;20188;-68
2022/11/12 06:57:01;;;;;;;12.97;7.80;;;;;;;;;;5071308;28;20254;-68
2022/11/12 06:59:26;;;;;;;12.73;7.83;;;;;;;;;;5072566;28;20710;-68
2022/11/12 07:01:51;;;;;;;13.53;7.43;;;;;;;;;;5070978;28;20269;-69
2022/11/12 07:04:17;;;;;;;15.87;7.03;;;;;;;;;;5074374;28;20256;-69
2022/11/12 07:06:42;;;;;;;12.27;7.00;;;;;;;;;;5066974;28;20181;-69
2022/11/12 07:09:08;;;;;;;11.17;5.93;;;;;;;;;;5073792;28;20265;-70
2022/11/12 07:11:33;;;;;;;11.63;6.33;;;;;;;;;;5073974;28;20180;-68
2022/11/12 07:13:58;;;;;;;11.23;6.13;;;;;;;;;;5073788;28;20180;-68
2022/11/12 07:16:24;;;;;;;10.00;6.13;;;;;;;;;;5069285;28;20185;-68
2022/11/12 07:18:49;;;;;;;9.17;5.73;;;;;;;;;;5071821;28;20644;-68
2022/11/12 07:21:17;;;;;;;8.83;5.73;;;;;;;;;;4370173;28;10000876;-68
2022/11/12 07:23:43;;;;;;;11.20;6.07;;;;;;;;;;5067493;28;20223;-68
2022/11/12 07:26:26;;;;;;;11.13;6.50;;;;;;;;;;5070473;28;20212;-68
2022/11/12 07:28:52;;;;;;;12.93;6.73;;;;;;;;;;5070903;28;20223;-67
2022/11/12 07:31:19;;;;;;;13.17;6.63;;;;;;;;;;5071112;28;20184;-68
2022/11/12 07:33:44;;;;;;;13.63;7.30;;;;;;;;;;5076078;28;20220;-68
2022/11/12 07:36:12;;;;;;;13.93;7.67;;;;;;;;;;5070333;28;20195;-68
2022/11/12 07:38:39;;;;;;;11.40;7.03;;;;;;;;;;5068930;28;20181;-68
2022/11/12 07:41:10;;;;;;;17.20;7.23;;;;;;;;;;5067323;28;20538;-68
2022/11/12 07:43:37;;;;;;;13.97;7.47;;;;;;;;;;5068998;28;20600;-68
2022/11/12 07:46:09;;;;;;;13.70;7.13;;;;;;;;;;5067711;28;20192;-69
2022/11/12 07:48:35;;;;;;;15.53;6.93;;;;;;;;;;5065870;28;20391;-70
2022/11/12 07:51:12;;;;;;;13.83;7.50;;;;;;;;;;5068570;28;20184;-70
2022/11/12 07:53:38;;;;;;;13.60;6.83;;;;;;;;;;5069506;28;20165;-69
2022/11/12 07:56:03;;;;;;;13.33;7.07;;;;;;;;;;5071752;28;20199;-69
2022/11/12 07:58:31;;;;;;;14.03;7.27;;;;;;;;;;5082692;28;20208;-69
2022/11/12 08:00:57;;;;;;;12.63;6.23;;;;;;;;;;5068221;28;20285;-69
2022/11/12 08:03:22;;;;;;;11.87;7.40;;;;;;;;;;5070758;28;20233;-69
2022/11/12 08:05:49;;;;;;;14.33;7.93;;;;;;;;;;5067052;28;20176;-69
2022/11/12 08:08:14;;;;;;;10.80;6.77;;;;;;;;;;5068353;28;20714;-69
2022/11/12 08:10:39;;;;;;;14.67;7.37;;;;;;;;;;5070647;28;20204;-70
2022/11/12 08:13:05;;;;;;;11.93;7.50;;;;;;;;;;5075910;28;20206;-69
2022/11/12 08:15:31;;;;;;;15.07;7.77;;;;;;;;;;5065640;28;20351;-69
2022/11/12 08:17:57;;;;;;;11.90;7.87;;;;;;;;;;5067158;28;20176;-69
2022/11/12 08:20:22;;;;;;;18.30;8.03;;;;;;;;;;5066859;28;20657;-68
2022/11/12 08:22:48;;;;;;;18.60;9.67;;;;;;;;;;5069662;28;20192;-68
2022/11/12 08:25:13;;;;;;;22.80;11.10;;;;;;;;;;5069924;28;20238;-68
2022/11/12 08:27:39;;;;;;;17.83;10.30;;;;;;;;;;5073087;28;20224;-68
2022/11/12 08:30:05;;;;;;;19.27;11.80;;;;;;;;;;5077538;28;20204;-68
2022/11/12 08:32:30;;;;;;;21.60;12.57;;;;;;;;;;5075781;28;20225;-69
2022/11/12 08:34:56;;;;;;;29.97;13.60;;;;;;;;;;5071394;28;20237;-69
2022/11/12 08:37:21;;;;;;;36.87;14.50;;;;;;;;;;5070096;28;20184;-69
2022/11/12 08:39:46;;;;;;;30.07;15.80;;;;;;;;;;5068904;28;20248;-69
2022/11/12 08:42:12;;;;;;;34.00;16.87;;;;;;;;;;5080381;28;20212;-70
2022/11/12 08:44:37;;;;;;;31.20;16.10;;;;;;;;;;5069264;28;20181;-70
2022/11/12 08:47:02;;;;;;;31.37;16.70;;;;;;;;;;5077252;28;20187;-69
2022/11/12 08:49:28;;;;;;;30.33;16.57;;;;;;;;;;5077389;28;20204;-69
2022/11/12 08:51:54;;;;;;;29.30;16.70;;;;;;;;;;5076490;28;20188;-69
2022/11/12 08:54:19;;;;;;;26.17;15.43;;;;;;;;;;5077638;28;20180;-69
2022/11/12 08:56:44;;;;;;;30.37;16.83;;;;;;;;;;5070804;28;20318;-69
2022/11/12 08:59:10;;;;;;;29.53;16.70;;;;;;;;;;5071957;28;20531;-69
2022/11/12 09:01:35;;;;;;;30.67;17.43;;;;;;;;;;5071025;28;20650;-69
2022/11/12 09:04:00;;;;;;;36.03;17.20;;;;;;;;;;5073985;28;20317;-69
2022/11/12 09:06:26;;;;;;;34.87;17.47;;;;;;;;;;5072548;28;20185;-69
2022/11/12 09:08:51;;;;;;;30.97;16.67;;;;;;;;;;5073784;28;20664;-69
2022/11/12 09:11:16;;;;;;;31.00;16.70;;;;;;;;;;5071708;28;20173;-69
2022/11/12 09:13:42;;;;;;;25.43;16.50;;;;;;;;;;5066569;28;20202;-70
2022/11/12 09:16:08;;;;;;;30.83;17.37;;;;;;;;;;5077595;28;20173;-69
2022/11/12 09:18:34;;;;;;;26.43;15.83;;;;;;;;;;5082264;28;20229;-69
2022/11/12 09:21:07;;;;;;;27.10;16.83;;;;;;;;;;5078402;28;20552;-69
2022/11/12 09:23:34;;;;;;;32.63;15.80;;;;;;;;;;5084631;28;20290;-69
2022/11/12 09:26:00;;;;;;;24.97;14.97;;;;;;;;;;5078645;28;20516;-69
2022/11/12 09:28:26;;;;;;;25.43;15.17;;;;;;;;;;5077870;28;20204;-69
2022/11/12 09:30:52;;;;;;;23.38;15.40;;;;;;;;;;5076419;28;20195;-69
2022/11/12 09:33:21;;;;;;;21.93;14.50;;;;;;;;;;5085627;28;20227;-69
2022/11/12 09:35:47;;;;;;;23.27;15.03;;;;;;;;;;5078257;28;20534;-69
2022/11/12 09:38:14;;;;;;;23.45;13.18;;;;;;;;;;5084882;28;20195;-69
2022/11/12 09:40:51;;;;;;;18.88;12.18;;;;;;;;;;5080665;28;20180;-69
2022/11/12 09:43:26;;;;;;;21.75;12.90;;;;;;;;;;5081568;28;20224;-69
2022/11/12 09:45:54;;;;;;;20.38;12.93;;;;;;;;;;5073194;28;20624;-69
2022/11/12 09:48:25;;;;;;;20.90;13.10;;;;;;;;;;5084152;28;20275;-69
2022/11/12 09:51:00;;;;;;;21.17;12.63;;;;;;;;;;5081387;28;20177;-69
2022/11/12 09:53:51;;;;;;;19.38;12.52;;;;;;;;;;5084972;28;20195;-69
2022/11/12 09:56:19;;;;;;;17.95;11.90;;;;;;;;;;5080644;28;20231;-69
2022/11/12 09:58:44;;;;;;;25.37;13.37;;;;;;;;;;5077197;28;20275;-69
2022/11/12 10:01:16;;;;;;;18.40;11.27;;;;;;;;;;5076884;28;20272;-69
2022/11/12 10:03:51;;;;;;;18.00;10.68;;;;;;;;;;5074233;28;20208;-69
2022/11/12 10:06:37;;;;;;;17.05;10.63;;;;;;;;;;5082658;28;20252;-69
2022/11/12 10:09:18;;;;;;;15.70;10.70;;;;;;;;;;5078346;28;20214;-69
2022/11/12 10:14:46;;;;;;;17.42;9.88;;;;;;;;;;5078457;28;20320;-69
2022/11/12 10:17:30;;;;;;;16.02;9.82;;;;;;;;;;5089108;28;20176;-69
2022/11/12 10:20:12;;;;;;;16.80;9.93;;;;;;;;;;5085796;28;20180;-69
2022/11/12 10:23:03;;;;;;;14.45;9.10;;;;;;;;;;5076916;28;20196;-69
2022/11/12 10:25:31;;;;;;;14.40;9.02;;;;;;;;;;5072729;28;20246;-69
2022/11/12 10:27:56;;;;;;;15.02;9.10;;;;;;;;;;5068848;28;20188;-69
2022/11/12 10:30:23;;;;;;;13.02;9.10;;;;;;;;;;5069913;28;20610;-69
2022/11/12 10:32:50;;;;;;;14.60;8.80;;;;;;;;;;5071416;28;20231;-69
2022/11/12 10:35:21;;;;;;;13.48;8.57;;;;;;;;;;5080759;28;20552;-68
2022/11/12 10:38:03;;;;;;;12.15;7.57;;;;;;;;;;5069371;28;20181;-68
2022/11/12 10:40:37;;;;;;;16.30;7.78;;;;;;;;;;5076004;28;20635;-68
2022/11/12 10:43:20;;;;;;;13.85;8.43;;;;;;;;;;5074122;28;20183;-69
2022/11/12 10:45:47;;;;;;;14.00;8.15;;;;;;;;;;5069611;28;20260;-69
2022/11/12 10:48:27;;;;;;;12.75;7.78;;;;;;;;;;5070065;28;20267;-69
2022/11/12 10:50:53;;;;;;;14.05;8.48;;;;;;;;;;5076506;28;20694;-68
2022/11/12 10:53:36;;;;;;;16.45;8.60;;;;;;;;;;5074931;28;20192;-69
2022/11/12 10:56:04;;;;;;;12.15;7.72;;;;;;;;;;5072124;28;20207;-69
2022/11/12 10:58:30;;;;;;;14.60;7.60;;;;;;;;;;5075506;28;20607;-69
2022/11/12 11:01:06;;;;;;;17.30;8.10;;;;;;;;;;5072465;28;20187;-69
2022/11/12 11:03:43;;;;;;;16.70;8.10;;;;;;;;;;5071714;28;20187;-69
2022/11/12 11:06:15;;;;;;;16.75;10.43;;;;;;;;;;5069256;28;20771;-68
2022/11/12 11:08:44;;;;;;;16.77;9.75;;;;;;;;;;5067089;28;20213;-69
2022/11/12 11:11:15;;;;;;;12.93;7.72;;;;;;;;;;5074735;28;20624;-68
2022/11/12 11:13:44;;;;;;;16.00;8.27;;;;;;;;;;5066536;28;20177;-68
2022/11/12 11:16:13;;;;;;;13.07;8.10;;;;;;;;;;5080108;28;20271;-68
2022/11/12 11:18:44;;;;;;;17.65;8.13;;;;;;;;;;5077396;28;20259;-68
2022/11/12 11:21:24;;;;;;;15.13;7.22;;;;;;;;;;5082567;28;20596;-68
2022/11/12 11:24:00;;;;;;;13.07;8.15;;;;;;;;;;5073491;28;20263;-68
2022/11/12 11:26:48;;;;;;;13.88;8.27;;;;;;;;;;5068995;28;20194;-68
2022/11/12 11:29:13;;;;;;;11.93;7.57;;;;;;;;;;5069299;28;20189;-68
2022/11/12 11:32:00;;;;;;;13.45;8.05;;;;;;;;;;5073725;28;20785;-69
2022/11/12 11:35:03;;;;;;;10.90;7.25;;;;;;;;;;5067627;28;20184;-69
2022/11/12 11:37:34;;;;;;;16.98;8.45;;;;;;;;;;5073803;28;20644;-69
2022/11/12 11:40:30;;;;;;;16.98;8.25;;;;;;;;;;5072644;28;20192;-69
2022/11/12 11:42:55;;;;;;;12.57;6.90;;;;;;;;;;5069436;28;20242;-69
2022/11/12 11:45:30;;;;;;;10.73;6.60;;;;;;;;;;5070580;28;20181;-69
2022/11/12 11:48:07;;;;;;;11.13;6.88;;;;;;;;;;5067784;28;20409;-69
2022/11/12 11:50:39;;;;;;;10.90;6.90;;;;;;;;;;5070577;28;20253;-69
2022/11/12 11:53:19;;;;;;;12.07;7.38;;;;;;;;;;5069291;28;20209;-68
2022/11/12 11:55:56;;;;;;;12.00;7.45;;;;;;;;;;5071447;28;20640;-69
2022/11/12 11:58:43;;;;;;;11.73;7.70;;;;;;;;;;5067987;28;20184;-69
2022/11/12 12:01:20;;;;;;;11.35;6.47;;;;;;;;;;5070404;28;20559;-69
2022/11/12 12:04:19;;;;;;;12.25;6.80;;;;;;;;;;5070360;28;20291;-69
2022/11/12 12:07:11;;;;;;;11.30;6.63;;;;;;;;;;5071201;28;20263;-69
2022/11/12 12:09:54;;;;;;;12.40;8.27;;;;;;;;;;5069649;28;20235;-69
2022/11/12 12:12:39;;;;;;;12.07;6.63;;;;;;;;;;5072487;28;20230;-69
2022/11/12 12:15:40;;;;;;;12.20;6.38;;;;;;;;;;5067309;28;20257;-69
2022/11/12 12:18:39;;;;;;;15.30;7.13;;;;;;;;;;5067447;28;20188;-69
2022/11/12 12:21:17;;;;;;;12.15;6.25;;;;;;;;;;5072135;28;20188;-69
2022/11/12 12:23:59;;;;;;;11.07;6.20;;;;;;;;;;5076422;28;20188;-69
2022/11/12 12:26:31;;;;;;;12.93;6.90;;;;;;;;;;5071593;28;20613;-69
2022/11/12 12:29:06;;;;;;;11.35;6.68;;;;;;;;;;5074556;28;20290;-68
2022/11/12 12:31:37;;;;;;;11.18;6.75;;;;;;;;;;5074446;28;20184;-68
2022/11/12 12:34:22;;;;;;;12.13;7.38;;;;;;;;;;5072925;28;20567;-68
2022/11/12 12:36:53;;;;;;;11.68;6.15;;;;;;;;;;5065932;28;20652;-68
2022/11/12 12:39:25;;;;;;;14.20;6.68;;;;;;;;;;5080173;28;20656;-68
2022/11/12 12:42:02;;;;;;;14.65;6.68;;;;;;;;;;5086961;28;20184;-68
2022/11/12 12:47:17;;;;;;;12.05;7.07;;;;;;;;;;5068168;28;20197;-68
2022/11/12 12:49:44;;;;;;;12.82;6.20;;;;;;;;;;5069162;28;20212;-68
2022/11/12 12:52:12;;;;;;;13.80;6.65;;;;;;;;;;5081467;28;20191;-68
2022/11/12 12:54:38;;;;;;;11.05;6.60;;;;;;;;;;5070702;28;20180;-67
2022/11/12 12:57:04;;;;;;;13.43;6.18;;;;;;;;;;5073904;28;20184;-68
2022/11/12 12:59:30;;;;;;;9.13;5.88;;;;;;;;;;5072727;28;20192;-69
2022/11/12 13:02:00;;;;;;;12.07;6.50;;;;;;;;;;5069798;28;20268;-68
2022/11/12 13:04:48;;;;;;;13.60;6.55;;;;;;;;;;5076621;28;20647;-68
2022/11/12 13:07:14;;;;;;;8.80;5.40;;;;;;;;;;5080102;28;20267;-67
2022/11/12 13:09:39;;;;;;;9.85;5.53;;;;;;;;;;5069468;28;20283;-69
2022/11/12 13:14:36;;;;;;;10.88;6.43;;;;;;;;;;5069676;28;20228;-69
2022/11/12 13:17:04;;;;;;;11.20;7.00;;;;;;;;;;5070614;28;20192;-69
2022/11/12 13:19:33;;;;;;;10.10;6.45;;;;;;;;;;5068881;28;20181;-69
2022/11/12 13:22:17;;;;;;;11.70;6.40;;;;;;;;;;5071895;28;20227;-69
2022/11/12 13:25:04;;;;;;;10.32;6.50;;;;;;;;;;5069702;28;20226;-69
2022/11/12 13:27:52;;;;;;;10.50;6.30;;;;;;;;;;5068744;28;20585;-69
2022/11/12 13:30:20;;;;;;;9.50;5.95;;;;;;;;;;5059952;28;20244;-69
2022/11/12 13:32:46;;;;;;;10.15;6.22;;;;;;;;;;5072401;28;20444;-69
2022/11/12 13:35:20;;;;;;;10.93;6.24;;;;;;;;;;4596340;28;10002708;-68
2022/11/12 13:37:59;;;;;;;12.55;7.35;;;;;;;;;;5064923;28;20478;-68
2022/11/12 13:40:28;;;;;;;12.63;7.05;;;;;;;;;;5072524;28;20194;-69
2022/11/12 13:42:57;;;;;;;11.48;6.70;;;;;;;;;;5071515;28;20600;-69
2022/11/12 13:45:24;;;;;;;12.00;7.07;;;;;;;;;;5080542;28;20188;-69
2022/11/12 13:47:51;;;;;;;11.65;6.00;;;;;;;;;;5072457;28;20617;-69
2022/11/12 13:50:19;;;;;;;9.65;6.38;;;;;;;;;;5070033;28;20291;-69
2022/11/12 13:52:46;;;;;;;10.85;5.75;;;;;;;;;;5082834;28;20676;-69
2022/11/12 13:55:18;;;;;;;10.70;6.28;;;;;;;;;;5085313;28;20548;-69
2022/11/12 13:57:51;;;;;;;10.85;5.32;;;;;;;;;;5074950;28;20519;-69
2022/11/12 14:00:16;;;;;;;12.60;6.05;;;;;;;;;;5079214;28;20177;-69
2022/11/12 14:02:44;;;;;;;11.40;6.65;;;;;;;;;;5080057;28;20560;-69
2022/11/12 14:05:18;;;;;;;13.73;6.68;;;;;;;;;;5071457;28;20489;-69
2022/11/12 14:07:44;;;;;;;13.38;7.15;;;;;;;;;;5071655;28;20203;-69
2022/11/12 14:10:56;;;;;;;11.10;6.68;;;;;;;;;;5068496;28;20220;-69
2022/11/12 14:13:58;;;;;;;15.73;7.05;;;;;;;;;;5021756;28;20702;-69
2022/11/12 14:16:33;;;;;;;11.02;6.00;;;;;;;;;;5068894;28;20181;-69
2022/11/12 14:19:16;;;;;;;11.70;7.05;;;;;;;;;;5071816;28;20179;-69
2022/11/12 14:21:41;;;;;;;13.05;6.95;;;;;;;;;;5067840;28;20185;-69
2022/11/12 14:24:11;;;;;;;11.10;6.65;;;;;;;;;;5067421;28;20194;-69
2022/11/12 14:26:38;;;;;;;13.18;7.45;;;;;;;;;;5078864;28;20176;-69
2022/11/12 14:29:04;;;;;;;14.63;7.07;;;;;;;;;;5078708;28;20205;-69
2022/11/12 14:31:29;;;;;;;13.82;7.30;;;;;;;;;;4722084;28;10000225;-69
2022/11/12 14:33:54;;;;;;;14.40;8.18;;;;;;;;;;5078797;28;20511;-68
2022/11/12 14:36:20;;;;;;;9.23;6.32;;;;;;;;;;5083529;28;20667;-69
2022/11/12 14:38:57;;;;;;;12.93;7.22;;;;;;;;;;5082518;28;20230;-69
2022/11/12 14:41:24;;;;;;;14.07;6.57;;;;;;;;;;5075395;28;20546;-69
2022/11/12 14:43:52;;;;;;;11.27;7.05;;;;;;;;;;5075036;28;20664;-68
2022/11/12 14:46:44;;;;;;;11.20;7.28;;;;;;;;;;5081658;28;20683;-68
2022/11/12 14:49:26;;;;;;;11.68;7.07;;;;;;;;;;5082129;28;20207;-68
2022/11/12 14:51:58;;;;;;;13.10;7.53;;;;;;;;;;5079469;28;20237;-69
2022/11/12 14:54:35;;;;;;;9.40;7.35;;;;;;;;;;5077132;28;20208;-69
2022/11/12 14:57:02;;;;;;;13.48;7.10;;;;;;;;;;5079980;28;20241;-69
2022/11/12 14:59:29;;;;;;;12.18;6.70;;;;;;;;;;5077598;28;20207;-69
2022/11/12 15:02:11;;;;;;;14.52;7.32;;;;;;;;;;5081751;28;20652;-69
2022/11/12 15:04:49;;;;;;;14.13;7.60;;;;;;;;;;5081010;28;20233;-69
2022/11/12 15:07:34;;;;;;;12.43;6.95;;;;;;;;;;5080647;28;20373;-69